sensor_id;sensor_type;location;lat;lon;timestamp;temperature;humidity
41756;DHT22;27435;48.480;9.258;2023-04-01T00:02:20;8.80;99.00
41756;DHT22;27435;48.480;9.258;2023-04-01T00:04:46;8.70;99.00
41756;DHT22;27435;48.480;9.258;2023-04-01T00:07:12;8.60;99.00
41756;DHT22;27435;48.480;9.258;2023-04-01T00:09:38;8.60;99.00
41756;DHT22;27435;48.480;9.258;2023-04-01T00:12:03;8.50;99.00
41756;DHT22;27435;48.480;9.258;2023-04-01T00:14:30;8.50;99.00
41756;DHT22;27435;48.480;9.258;2023-04-01T00:16:55;8.50;99.00
41756;DHT22;27435;48.480;9.258;2023-04-01T00:19:22;8.50;99.00
41756;DHT22;27435;48.480;9.258;2023-04-01T00:21:47;8.40;99.00
41756;DHT22;27435;48.480;9.258;2023-04-01T00:24:13;8.40;99.00
41756;DHT22;27435;48.480;9.258;2023-04-01T00:26:39;8.40;99.00
41756;DHT22;27435;48.480;9.258;2023-04-01T00:29:07;8.50;99.00
41756;DHT22;27435;48.480;9.258;2023-04-01T00:31:33;8.50;99.00
41756;DHT22;27435;48.480;9.258;2023-04-01T00:33:59;8.60;99.00
41756;DHT22;27435;48.480;9.258;2023-04-01T00:36:24;8.60;99.00
41756;DHT22;27435;48.480;9.258;2023-04-01T00:38:50;8.60;99.00
41756;DHT22;27435;48.480;9.258;2023-04-01T00:41:18;8.60;99.00
41756;DHT22;27435;48.480;9.258;2023-04-01T00:43:47;8.60;99.00
41756;DHT22;27435;48.480;9.258;2023-04-01T00:46:14;8.60;99.00
41756;DHT22;27435;48.480;9.258;2023-04-01T00:48:51;8.60;99.00
41756;DHT22;27435;48.480;9.258;2023-04-01T00:51:20;8.60;99.00
41756;DHT22;27435;48.480;9.258;2023-04-01T00:53:50;8.50;99.00
41756;DHT22;27435;48.480;9.258;2023-04-01T00:56:22;8.60;99.00
41756;DHT22;27435;48.480;9.258;2023-04-01T00:59:11;8.50;99.00
41756;DHT22;27435;48.480;9.258;2023-04-01T01:01:38;8.40;99.00
41756;DHT22;27435;48.480;9.258;2023-04-01T01:04:04;8.40;99.00
41756;DHT22;27435;48.480;9.258;2023-04-01T01:06:39;8.40;99.00
41756;DHT22;27435;48.480;9.258;2023-04-01T01:14:39;8.20;99.00
41756;DHT22;27435;48.480;9.258;2023-04-01T01:17:19;8.10;99.00
41756;DHT22;27435;48.480;9.258;2023-04-01T01:27:34;8.00;99.00
41756;DHT22;27435;48.480;9.258;2023-04-01T01:33:01;7.90;99.00
41756;DHT22;27435;48.480;9.258;2023-04-01T01:35:38;7.90;99.00
41756;DHT22;27435;48.480;9.258;2023-04-01T01:38:10;7.90;99.00
41756;DHT22;27435;48.480;9.258;2023-04-01T01:40:39;8.00;99.00
41756;DHT22;27435;48.480;9.258;2023-04-01T01:43:09;8.10;99.00
41756;DHT22;27435;48.480;9.258;2023-04-01T01:45:40;8.20;99.00
41756;DHT22;27435;48.480;9.258;2023-04-01T01:48:08;8.20;99.00
41756;DHT22;27435;48.480;9.258;2023-04-01T01:50:35;8.10;99.00
41756;DHT22;27435;48.480;9.258;2023-04-01T01:53:07;8.10;99.00
41756;DHT22;27435;48.480;9.258;2023-04-01T01:55:35;8.20;99.00
41756;DHT22;27435;48.480;9.258;2023-04-01T01:58:25;8.20;99.00
41756;DHT22;27435;48.480;9.258;2023-04-01T02:01:01;8.30;99.00
41756;DHT22;27435;48.480;9.258;2023-04-01T02:03:30;8.30;99.00
41756;DHT22;27435;48.480;9.258;2023-04-01T02:05:59;8.30;99.00
41756;DHT22;27435;48.480;9.258;2023-04-01T02:11:09;8.30;99.00
41756;DHT22;27435;48.480;9.258;2023-04-01T02:16:22;8.20;99.00
41756;DHT22;27435;48.480;9.258;2023-04-01T02:18:49;8.30;99.00
41756;DHT22;27435;48.480;9.258;2023-04-01T02:21:18;8.20;99.00
41756;DHT22;27435;48.480;9.258;2023-04-01T02:23:46;8.20;99.00
41756;DHT22;27435;48.480;9.258;2023-04-01T02:26:13;8.30;99.00
41756;DHT22;27435;48.480;9.258;2023-04-01T02:28:40;8.20;99.00
41756;DHT22;27435;48.480;9.258;2023-04-01T02:31:08;8.20;99.00
41756;DHT22;27435;48.480;9.258;2023-04-01T02:33:36;8.10;99.00
41756;DHT22;27435;48.480;9.258;2023-04-01T02:36:04;8.00;99.00
41756;DHT22;27435;48.480;9.258;2023-04-01T02:38:29;8.00;99.00
41756;DHT22;27435;48.480;9.258;2023-04-01T02:41:00;7.90;99.00
41756;DHT22;27435;48.480;9.258;2023-04-01T02:43:26;8.00;99.00
41756;DHT22;27435;48.480;9.258;2023-04-01T02:45:52;8.00;99.00
41756;DHT22;27435;48.480;9.258;2023-04-01T02:48:18;7.90;99.00
41756;DHT22;27435;48.480;9.258;2023-04-01T02:50:43;7.90;99.00
41756;DHT22;27435;48.480;9.258;2023-04-01T02:53:09;7.90;99.00
41756;DHT22;27435;48.480;9.258;2023-04-01T02:55:35;7.90;99.00
41756;DHT22;27435;48.480;9.258;2023-04-01T02:58:01;7.80;99.00
41756;DHT22;27435;48.480;9.258;2023-04-01T03:00:27;7.60;99.00
41756;DHT22;27435;48.480;9.258;2023-04-01T03:02:53;7.50;99.00
41756;DHT22;27435;48.480;9.258;2023-04-01T03:05:19;7.40;99.00
41756;DHT22;27435;48.480;9.258;2023-04-01T03:07:45;7.40;99.00
41756;DHT22;27435;48.480;9.258;2023-04-01T03:10:11;7.40;99.00
41756;DHT22;27435;48.480;9.258;2023-04-01T03:12:36;7.20;99.00
41756;DHT22;27435;48.480;9.258;2023-04-01T03:15:02;7.10;99.00
41756;DHT22;27435;48.480;9.258;2023-04-01T03:17:28;7.00;99.00
41756;DHT22;27435;48.480;9.258;2023-04-01T03:19:54;6.90;99.00
41756;DHT22;27435;48.480;9.258;2023-04-01T03:22:20;6.80;99.00
41756;DHT22;27435;48.480;9.258;2023-04-01T03:24:47;6.80;99.00
41756;DHT22;27435;48.480;9.258;2023-04-01T03:27:14;6.70;99.00
41756;DHT22;27435;48.480;9.258;2023-04-01T03:29:39;6.70;99.00
41756;DHT22;27435;48.480;9.258;2023-04-01T03:32:05;6.70;99.00
41756;DHT22;27435;48.480;9.258;2023-04-01T03:34:31;6.60;99.00
41756;DHT22;27435;48.480;9.258;2023-04-01T03:36:57;6.60;99.00
41756;DHT22;27435;48.480;9.258;2023-04-01T03:39:23;6.60;99.00
41756;DHT22;27435;48.480;9.258;2023-04-01T03:41:49;6.60;99.00
41756;DHT22;27435;48.480;9.258;2023-04-01T03:44:15;6.50;99.00
41756;DHT22;27435;48.480;9.258;2023-04-01T03:46:41;6.50;99.00
41756;DHT22;27435;48.480;9.258;2023-04-01T03:49:10;6.50;99.00
41756;DHT22;27435;48.480;9.258;2023-04-01T03:51:43;6.50;99.00
41756;DHT22;27435;48.480;9.258;2023-04-01T03:54:10;6.30;99.00
41756;DHT22;27435;48.480;9.258;2023-04-01T03:56:36;6.30;99.00
41756;DHT22;27435;48.480;9.258;2023-04-01T03:59:04;6.30;99.00
41756;DHT22;27435;48.480;9.258;2023-04-01T04:01:30;6.30;99.00
41756;DHT22;27435;48.480;9.258;2023-04-01T04:03:56;6.30;99.00
41756;DHT22;27435;48.480;9.258;2023-04-01T04:06:22;6.30;99.00
41756;DHT22;27435;48.480;9.258;2023-04-01T04:08:48;6.30;99.00
41756;DHT22;27435;48.480;9.258;2023-04-01T04:11:14;6.50;99.00
41756;DHT22;27435;48.480;9.258;2023-04-01T04:13:40;6.60;99.00
41756;DHT22;27435;48.480;9.258;2023-04-01T04:16:06;6.60;99.00
41756;DHT22;27435;48.480;9.258;2023-04-01T04:18:32;6.70;99.00
41756;DHT22;27435;48.480;9.258;2023-04-01T04:20:58;6.70;99.00
41756;DHT22;27435;48.480;9.258;2023-04-01T04:23:23;6.80;99.00
41756;DHT22;27435;48.480;9.258;2023-04-01T04:26:01;6.80;99.00
41756;DHT22;27435;48.480;9.258;2023-04-01T04:28:28;6.90;99.00
41756;DHT22;27435;48.480;9.258;2023-04-01T04:30:54;6.90;99.00
41756;DHT22;27435;48.480;9.258;2023-04-01T04:33:20;6.90;99.00
41756;DHT22;27435;48.480;9.258;2023-04-01T04:35:46;6.90;99.00
41756;DHT22;27435;48.480;9.258;2023-04-01T04:38:11;6.90;99.00
41756;DHT22;27435;48.480;9.258;2023-04-01T04:40:38;7.00;99.00
41756;DHT22;27435;48.480;9.258;2023-04-01T04:43:04;7.00;99.00
41756;DHT22;27435;48.480;9.258;2023-04-01T04:45:30;7.10;99.00
41756;DHT22;27435;48.480;9.258;2023-04-01T04:47:56;7.10;99.00
41756;DHT22;27435;48.480;9.258;2023-04-01T04:50:24;7.10;99.00
41756;DHT22;27435;48.480;9.258;2023-04-01T04:52:50;7.10;99.00
41756;DHT22;27435;48.480;9.258;2023-04-01T04:55:16;7.20;99.00
41756;DHT22;27435;48.480;9.258;2023-04-01T04:57:42;7.20;99.00
41756;DHT22;27435;48.480;9.258;2023-04-01T05:00:08;7.20;99.00
41756;DHT22;27435;48.480;9.258;2023-04-01T05:02:35;7.20;99.00
41756;DHT22;27435;48.480;9.258;2023-04-01T05:05:01;7.20;99.00
41756;DHT22;27435;48.480;9.258;2023-04-01T05:07:27;7.20;99.00
41756;DHT22;27435;48.480;9.258;2023-04-01T05:09:52;7.20;99.00
41756;DHT22;27435;48.480;9.258;2023-04-01T05:12:18;7.20;99.00
41756;DHT22;27435;48.480;9.258;2023-04-01T05:14:44;7.20;99.00
41756;DHT22;27435;48.480;9.258;2023-04-01T05:17:11;7.30;99.00
41756;DHT22;27435;48.480;9.258;2023-04-01T05:19:37;7.40;99.00
41756;DHT22;27435;48.480;9.258;2023-04-01T05:22:03;7.50;99.00
41756;DHT22;27435;48.480;9.258;2023-04-01T05:24:29;7.70;99.00
41756;DHT22;27435;48.480;9.258;2023-04-01T05:26:55;7.70;99.00
41756;DHT22;27435;48.480;9.258;2023-04-01T05:29:21;7.90;99.00
41756;DHT22;27435;48.480;9.258;2023-04-01T05:31:47;8.00;99.00
41756;DHT22;27435;48.480;9.258;2023-04-01T05:34:13;8.10;98.50
41756;DHT22;27435;48.480;9.258;2023-04-01T05:36:39;8.10;98.80
41756;DHT22;27435;48.480;9.258;2023-04-01T05:39:05;8.20;98.40
41756;DHT22;27435;48.480;9.258;2023-04-01T05:41:30;8.20;97.90
41756;DHT22;27435;48.480;9.258;2023-04-01T05:43:56;8.20;97.80
41756;DHT22;27435;48.480;9.258;2023-04-01T05:46:22;8.20;97.60
41756;DHT22;27435;48.480;9.258;2023-04-01T05:48:47;8.20;97.00
41756;DHT22;27435;48.480;9.258;2023-04-01T05:51:14;8.30;96.00
41756;DHT22;27435;48.480;9.258;2023-04-01T05:53:40;8.30;95.80
41756;DHT22;27435;48.480;9.258;2023-04-01T05:56:06;8.40;95.00
41756;DHT22;27435;48.480;9.258;2023-04-01T05:58:35;8.50;95.00
41756;DHT22;27435;48.480;9.258;2023-04-01T06:01:02;8.50;94.50
41756;DHT22;27435;48.480;9.258;2023-04-01T06:03:28;8.50;94.00
41756;DHT22;27435;48.480;9.258;2023-04-01T06:05:54;8.50;94.60
41756;DHT22;27435;48.480;9.258;2023-04-01T06:08:19;8.50;94.60
41756;DHT22;27435;48.480;9.258;2023-04-01T06:10:50;8.60;94.80
41756;DHT22;27435;48.480;9.258;2023-04-01T06:34:27;9.30;92.00
41756;DHT22;27435;48.480;9.258;2023-04-01T06:40:19;9.30;91.80
41756;DHT22;27435;48.480;9.258;2023-04-01T06:42:31;9.40;91.20
41756;DHT22;27435;48.480;9.258;2023-04-01T06:45:10;9.40;91.80
41756;DHT22;27435;48.480;9.258;2023-04-01T06:47:52;9.40;90.80
41756;DHT22;27435;48.480;9.258;2023-04-01T06:53:10;9.50;90.70
41756;DHT22;27435;48.480;9.258;2023-04-01T06:55:44;9.60;90.40
41756;DHT22;27435;48.480;9.258;2023-04-01T06:58:21;9.60;90.20
41756;DHT22;27435;48.480;9.258;2023-04-01T07:00:50;9.60;90.10
41756;DHT22;27435;48.480;9.258;2023-04-01T07:05:57;9.70;89.80
41756;DHT22;27435;48.480;9.258;2023-04-01T07:08:25;9.60;89.50
41756;DHT22;27435;48.480;9.258;2023-04-01T07:11:02;9.60;90.20
41756;DHT22;27435;48.480;9.258;2023-04-01T07:13:52;9.80;89.80
41756;DHT22;27435;48.480;9.258;2023-04-01T07:16:36;9.90;89.50
41756;DHT22;27435;48.480;9.258;2023-04-01T07:19:50;10.10;89.60
41756;DHT22;27435;48.480;9.258;2023-04-01T07:21:54;10.00;88.50
41756;DHT22;27435;48.480;9.258;2023-04-01T07:24:40;10.00;89.40
41756;DHT22;27435;48.480;9.258;2023-04-01T07:27:11;10.10;88.90
41756;DHT22;27435;48.480;9.258;2023-04-01T07:29:37;10.10;89.40
41756;DHT22;27435;48.480;9.258;2023-04-01T07:50:50;10.00;87.00
41756;DHT22;27435;48.480;9.258;2023-04-01T07:53:22;10.00;87.90
41756;DHT22;27435;48.480;9.258;2023-04-01T07:56:05;10.20;86.60
41756;DHT22;27435;48.480;9.258;2023-04-01T07:58:44;10.20;85.80
41756;DHT22;27435;48.480;9.258;2023-04-01T08:10:23;10.20;86.80
41756;DHT22;27435;48.480;9.258;2023-04-01T08:16:01;10.20;86.20
41756;DHT22;27435;48.480;9.258;2023-04-01T08:21:41;10.00;86.20
41756;DHT22;27435;48.480;9.258;2023-04-01T08:24:27;10.10;86.80
41756;DHT22;27435;48.480;9.258;2023-04-01T08:26:58;9.90;86.80
41756;DHT22;27435;48.480;9.258;2023-04-01T08:29:41;10.00;86.90
41756;DHT22;27435;48.480;9.258;2023-04-01T08:32:15;10.10;86.60
41756;DHT22;27435;48.480;9.258;2023-04-01T08:34:47;10.30;87.00
41756;DHT22;27435;48.480;9.258;2023-04-01T08:37:28;10.30;86.00
41756;DHT22;27435;48.480;9.258;2023-04-01T08:49:19;10.30;86.00
41756;DHT22;27435;48.480;9.258;2023-04-01T08:55:02;10.40;86.00
41756;DHT22;27435;48.480;9.258;2023-04-01T09:00:43;10.20;85.70
41756;DHT22;27435;48.480;9.258;2023-04-01T09:06:12;10.30;85.90
41756;DHT22;27435;48.480;9.258;2023-04-01T09:20:42;10.00;90.90
41756;DHT22;27435;48.480;9.258;2023-04-01T09:39:36;10.10;91.20
41756;DHT22;27435;48.480;9.258;2023-04-01T09:45:05;10.00;93.60
41756;DHT22;27435;48.480;9.258;2023-04-01T09:50:51;9.80;94.40
41756;DHT22;27435;48.480;9.258;2023-04-01T09:53:33;9.70;94.10
41756;DHT22;27435;48.480;9.258;2023-04-01T10:07:34;9.80;92.20
41756;DHT22;27435;48.480;9.258;2023-04-01T10:21:46;10.40;92.30
41756;DHT22;27435;48.480;9.258;2023-04-01T10:24:42;10.20;92.80
41756;DHT22;27435;48.480;9.258;2023-04-01T10:36:18;9.70;96.40
41756;DHT22;27435;48.480;9.258;2023-04-01T10:47:53;9.80;95.70
41756;DHT22;27435;48.480;9.258;2023-04-01T10:50:26;10.00;94.60
41756;DHT22;27435;48.480;9.258;2023-04-01T11:10:26;10.10;92.80
41756;DHT22;27435;48.480;9.258;2023-04-01T11:24:42;10.30;91.30
41756;DHT22;27435;48.480;9.258;2023-04-01T11:33:07;10.70;92.60
41756;DHT22;27435;48.480;9.258;2023-04-01T11:36:06;10.60;93.00
41756;DHT22;27435;48.480;9.258;2023-04-01T11:44:30;10.20;94.30
41756;DHT22;27435;48.480;9.258;2023-04-01T11:47:09;10.10;94.80
41756;DHT22;27435;48.480;9.258;2023-04-01T11:52:19;9.80;96.10
41756;DHT22;27435;48.480;9.258;2023-04-01T11:54:51;10.00;94.90
41756;DHT22;27435;48.480;9.258;2023-04-01T12:19:59;11.00;92.90
41756;DHT22;27435;48.480;9.258;2023-04-01T12:22:45;11.00;92.90
41756;DHT22;27435;48.480;9.258;2023-04-01T12:31:38;10.70;96.80
41756;DHT22;27435;48.480;9.258;2023-04-01T12:34:43;10.70;96.50
41756;DHT22;27435;48.480;9.258;2023-04-01T12:37:29;10.80;95.50
41756;DHT22;27435;48.480;9.258;2023-04-01T12:48:08;10.70;98.30
41756;DHT22;27435;48.480;9.258;2023-04-01T12:56:02;10.60;98.50
41756;DHT22;27435;48.480;9.258;2023-04-01T13:01:45;10.50;97.80
41756;DHT22;27435;48.480;9.258;2023-04-01T13:10:06;11.20;94.20
41756;DHT22;27435;48.480;9.258;2023-04-01T13:12:46;11.10;93.80
41756;DHT22;27435;48.480;9.258;2023-04-01T13:15:19;11.10;94.70
41756;DHT22;27435;48.480;9.258;2023-04-01T13:26:24;11.50;90.30
41756;DHT22;27435;48.480;9.258;2023-04-01T13:29:20;11.60;88.20
41756;DHT22;27435;48.480;9.258;2023-04-01T13:33:10;11.50;88.50
41756;DHT22;27435;48.480;9.258;2023-04-01T13:40:43;11.70;87.90
41756;DHT22;27435;48.480;9.258;2023-04-01T13:43:29;11.70;87.70
41756;DHT22;27435;48.480;9.258;2023-04-01T14:02:40;10.90;89.40
41756;DHT22;27435;48.480;9.258;2023-04-01T14:08:25;10.70;89.70
41756;DHT22;27435;48.480;9.258;2023-04-01T14:13:31;10.80;91.60
41756;DHT22;27435;48.480;9.258;2023-04-01T14:41:19;11.00;88.10
41756;DHT22;27435;48.480;9.258;2023-04-01T14:49:32;10.80;88.40
41756;DHT22;27435;48.480;9.258;2023-04-01T14:54:43;10.90;88.60
41756;DHT22;27435;48.480;9.258;2023-04-01T14:57:15;10.90;88.30
41756;DHT22;27435;48.480;9.258;2023-04-01T15:05:32;10.60;90.00
41756;DHT22;27435;48.480;9.258;2023-04-01T15:08:15;10.60;90.60
41756;DHT22;27435;48.480;9.258;2023-04-01T15:16:06;11.10;88.90
41756;DHT22;27435;48.480;9.258;2023-04-01T15:24:24;11.00;89.70
41756;DHT22;27435;48.480;9.258;2023-04-01T15:43:42;10.80;91.30
41756;DHT22;27435;48.480;9.258;2023-04-01T15:46:24;10.50;92.20
41756;DHT22;27435;48.480;9.258;2023-04-01T15:57:27;10.40;91.10
41756;DHT22;27435;48.480;9.258;2023-04-01T16:00:11;10.30;91.00
41756;DHT22;27435;48.480;9.258;2023-04-01T16:11:21;10.40;90.30
41756;DHT22;27435;48.480;9.258;2023-04-01T16:16:46;10.20;90.50
41756;DHT22;27435;48.480;9.258;2023-04-01T16:22:05;10.20;90.00
41756;DHT22;27435;48.480;9.258;2023-04-01T16:27:34;10.20;89.40
41756;DHT22;27435;48.480;9.258;2023-04-01T16:30:35;10.20;89.90
41756;DHT22;27435;48.480;9.258;2023-04-01T16:36:04;10.30;89.50
41756;DHT22;27435;48.480;9.258;2023-04-01T16:41:09;10.10;90.30
41756;DHT22;27435;48.480;9.258;2023-04-01T16:43:42;10.20;90.20
41756;DHT22;27435;48.480;9.258;2023-04-01T16:54:35;10.30;90.00
41756;DHT22;27435;48.480;9.258;2023-04-01T16:57:03;10.30;90.40
41756;DHT22;27435;48.480;9.258;2023-04-01T17:00:01;10.30;90.60
41756;DHT22;27435;48.480;9.258;2023-04-01T17:02:38;10.30;90.60
41756;DHT22;27435;48.480;9.258;2023-04-01T17:05:11;10.30;90.70
41756;DHT22;27435;48.480;9.258;2023-04-01T17:08:07;10.40;90.70
41756;DHT22;27435;48.480;9.258;2023-04-01T17:11:16;10.40;89.90
41756;DHT22;27435;48.480;9.258;2023-04-01T17:28:58;10.30;90.90
41756;DHT22;27435;48.480;9.258;2023-04-01T17:31:10;10.30;91.10
41756;DHT22;27435;48.480;9.258;2023-04-01T17:41:57;10.00;90.70
41756;DHT22;27435;48.480;9.258;2023-04-01T17:57:51;10.00;91.20
41756;DHT22;27435;48.480;9.258;2023-04-01T18:09:12;10.00;91.30
41756;DHT22;27435;48.480;9.258;2023-04-01T18:17:45;9.80;90.80
41756;DHT22;27435;48.480;9.258;2023-04-01T18:20:24;9.80;90.90
41756;DHT22;27435;48.480;9.258;2023-04-01T18:23:03;9.80;90.90
41756;DHT22;27435;48.480;9.258;2023-04-01T18:25:45;9.80;90.90
41756;DHT22;27435;48.480;9.258;2023-04-01T18:36:37;10.00;90.60
41756;DHT22;27435;48.480;9.258;2023-04-01T18:39:18;9.80;90.50
41756;DHT22;27435;48.480;9.258;2023-04-01T18:44:48;9.60;91.20
41756;DHT22;27435;48.480;9.258;2023-04-01T18:47:33;9.70;91.20
41756;DHT22;27435;48.480;9.258;2023-04-01T18:50:24;9.70;91.20
41756;DHT22;27435;48.480;9.258;2023-04-01T18:53:08;9.70;91.60
41756;DHT22;27435;48.480;9.258;2023-04-01T18:55:40;9.60;93.30
41756;DHT22;27435;48.480;9.258;2023-04-01T19:00:52;9.50;94.90
41756;DHT22;27435;48.480;9.258;2023-04-01T19:03:25;9.40;95.40
41756;DHT22;27435;48.480;9.258;2023-04-01T19:05:54;9.40;96.50
41756;DHT22;27435;48.480;9.258;2023-04-01T19:08:30;9.40;97.00
41756;DHT22;27435;48.480;9.258;2023-04-01T19:14:19;9.00;99.00
41756;DHT22;27435;48.480;9.258;2023-04-01T19:16:52;8.80;99.00
41756;DHT22;27435;48.480;9.258;2023-04-01T19:21:57;8.70;99.00
41756;DHT22;27435;48.480;9.258;2023-04-01T19:27:22;8.60;99.00
41756;DHT22;27435;48.480;9.258;2023-04-01T19:38:40;8.50;99.00
41756;DHT22;27435;48.480;9.258;2023-04-01T19:43:50;8.30;99.00
41756;DHT22;27435;48.480;9.258;2023-04-01T19:49:44;8.20;99.00
41756;DHT22;27435;48.480;9.258;2023-04-01T19:52:37;8.10;99.00
41756;DHT22;27435;48.480;9.258;2023-04-01T20:00:53;8.10;99.00
41756;DHT22;27435;48.480;9.258;2023-04-01T20:03:58;7.90;99.00
41756;DHT22;27435;48.480;9.258;2023-04-01T20:06:35;8.00;99.00
41756;DHT22;27435;48.480;9.258;2023-04-01T20:09:58;7.90;99.00
41756;DHT22;27435;48.480;9.258;2023-04-01T20:12:42;7.90;99.00
41756;DHT22;27435;48.480;9.258;2023-04-01T20:18:03;7.80;99.00
41756;DHT22;27435;48.480;9.258;2023-04-01T20:20:31;7.80;99.00
41756;DHT22;27435;48.480;9.258;2023-04-01T20:23:21;7.90;99.00
41756;DHT22;27435;48.480;9.258;2023-04-01T20:25:57;7.80;99.00
41756;DHT22;27435;48.480;9.258;2023-04-01T20:28:37;7.40;99.00
41756;DHT22;27435;48.480;9.258;2023-04-01T20:34:50;7.50;99.00
41756;DHT22;27435;48.480;9.258;2023-04-01T20:40:57;7.90;99.00
41756;DHT22;27435;48.480;9.258;2023-04-01T20:43:46;8.10;99.00
41756;DHT22;27435;48.480;9.258;2023-04-01T20:49:54;8.30;99.00
41756;DHT22;27435;48.480;9.258;2023-04-01T21:08:49;7.90;99.00
41756;DHT22;27435;48.480;9.258;2023-04-01T21:14:07;7.80;99.00
41756;DHT22;27435;48.480;9.258;2023-04-01T21:19:37;7.40;99.00
41756;DHT22;27435;48.480;9.258;2023-04-01T21:27:47;8.00;99.00
41756;DHT22;27435;48.480;9.258;2023-04-01T21:38:56;8.40;99.00
41756;DHT22;27435;48.480;9.258;2023-04-01T21:44:43;8.30;99.00
41756;DHT22;27435;48.480;9.258;2023-04-01T21:56:31;8.30;99.00
41756;DHT22;27435;48.480;9.258;2023-04-01T21:59:19;8.20;99.00
41756;DHT22;27435;48.480;9.258;2023-04-01T22:13:15;8.10;99.00
41756;DHT22;27435;48.480;9.258;2023-04-01T22:18:31;8.00;99.00
41756;DHT22;27435;48.480;9.258;2023-04-01T22:21:36;8.00;99.00
41756;DHT22;27435;48.480;9.258;2023-04-01T22:27:24;8.20;99.00
41756;DHT22;27435;48.480;9.258;2023-04-01T22:35:04;8.20;99.00
41756;DHT22;27435;48.480;9.258;2023-04-01T22:43:38;8.00;99.00
41756;DHT22;27435;48.480;9.258;2023-04-01T22:46:15;8.00;99.00
41756;DHT22;27435;48.480;9.258;2023-04-01T22:51:20;7.90;99.00
41756;DHT22;27435;48.480;9.258;2023-04-01T22:56:41;8.00;99.00
41756;DHT22;27435;48.480;9.258;2023-04-01T22:59:14;8.00;99.00
41756;DHT22;27435;48.480;9.258;2023-04-01T23:02:03;7.90;99.00
41756;DHT22;27435;48.480;9.258;2023-04-01T23:04:35;7.90;99.00
41756;DHT22;27435;48.480;9.258;2023-04-01T23:10:27;8.00;99.00
41756;DHT22;27435;48.480;9.258;2023-04-01T23:12:58;7.90;99.00
41756;DHT22;27435;48.480;9.258;2023-04-01T23:15:24;7.90;99.00
41756;DHT22;27435;48.480;9.258;2023-04-01T23:26:42;7.80;99.00
41756;DHT22;27435;48.480;9.258;2023-04-01T23:29:18;7.90;99.00
41756;DHT22;27435;48.480;9.258;2023-04-01T23:31:56;7.90;99.00
41756;DHT22;27435;48.480;9.258;2023-04-01T23:34:27;8.00;99.00
41756;DHT22;27435;48.480;9.258;2023-04-01T23:36:58;8.00;99.00
41756;DHT22;27435;48.480;9.258;2023-04-01T23:39:36;7.90;99.00
41756;DHT22;27435;48.480;9.258;2023-04-01T23:42:12;7.80;99.00
41756;DHT22;27435;48.480;9.258;2023-04-01T23:44:39;7.70;99.00
41756;DHT22;27435;48.480;9.258;2023-04-01T23:47:08;7.70;99.00
41756;DHT22;27435;48.480;9.258;2023-04-01T23:49:39;7.60;99.00
41756;DHT22;27435;48.480;9.258;2023-04-01T23:52:25;7.50;99.00
41756;DHT22;27435;48.480;9.258;2023-04-01T23:57:36;7.60;99.00
